Fort Worth, Texas
Current Conditions -  °F | °C
As of 10:53 AM on Thursday 23 Oct 2014 (Local Time) from KFTW Reporting Station
Overcast Overcast  
Wind Chill: 69°   Ceiling: 8000
Heat Index: 69°   Visibility: 10mi
Dew Point: 55°   Wind: 8mph
Humidity: 61%   Direction: 130°SE
Pressure: 30.16"   Gusts: NA
Location:  32.75°N, 97.33°W
Report Text: KFTW 231553Z AUTO 13007KT 10SM OVC080 21/13 A3016 RMK AO2 SLP207 T02060128
Loading
Personal Weather Stations






























Interactive Weather Map New forecast layout! Learn more

10-Day Weather Forecast

Advertisements
Track Severe Weather on mobile